Time;durP1;ratioP1;P1;durP2;ratioP2;P2;SDS_P1;SDS_P2;PMS_P1;PMS_P2;Temp;Humidity;BMP_temperature;BMP_pressure;BME280_temperature;BME280_humidity;BME280_pressure;Samples;Min_cycle;Max_cycle;Signal;HPM_P1;HPM_P2
2022/01/10 00:02:08;;;;;;;8.57;5.27;;;2.90;99.90;;;;;;5076360;28;20439;-80
2022/01/10 00:04:53;;;;;;;9.83;7.40;;;2.80;99.90;;;;;;5062890;28;20389;-80
2022/01/10 00:07:38;;;;;;;6.80;6.20;;;2.90;99.90;;;;;;5071543;28;20392;-80
2022/01/10 00:10:22;;;;;;;6.33;5.60;;;2.80;99.90;;;;;;5071108;28;20783;-80
2022/01/10 00:13:07;;;;;;;6.00;5.50;;;2.80;99.90;;;;;;5087054;28;20796;-80
2022/01/10 00:15:51;;;;;;;7.20;6.60;;;2.80;99.90;;;;;;5081420;28;20412;-81
2022/01/10 00:18:36;;;;;;;7.70;6.37;;;2.80;99.90;;;;;;5076432;28;20410;-81
2022/01/10 00:21:20;;;;;;;8.43;6.50;;;2.80;99.90;;;;;;5076912;28;20419;-80
2022/01/10 00:24:05;;;;;;;13.63;6.83;;;2.90;99.90;;;;;;5077870;28;20363;-80
2022/01/10 00:26:50;;;;;;;14.17;5.90;;;2.80;99.90;;;;;;5075804;28;20447;-80
2022/01/10 00:29:35;;;;;;;8.63;5.93;;;2.90;99.90;;;;;;5075488;28;20409;-80
2022/01/10 00:32:19;;;;;;;7.37;5.47;;;2.80;99.90;;;;;;5075909;28;20442;-80
2022/01/10 00:35:05;;;;;;;8.30;6.80;;;2.90;99.90;;;;;;5060665;28;20359;-79
2022/01/10 00:37:51;;;;;;;10.03;7.33;;;3.00;99.90;;;;;;5060501;28;20432;-80
2022/01/10 00:40:35;;;;;;;6.53;5.93;;;3.00;99.90;;;;;;5075866;28;20489;-80
2022/01/10 00:43:30;;;;;;;7.77;6.10;;;3.00;99.90;;;;;;5075844;28;20435;-80
2022/01/10 00:46:15;;;;;;;6.80;6.30;;;3.10;99.90;;;;;;5060505;28;20365;-80
2022/01/10 00:48:59;;;;;;;10.73;5.87;;;3.10;99.90;;;;;;5060812;28;20465;-81
2022/01/10 00:51:44;;;;;;;7.00;5.93;;;3.10;99.90;;;;;;5075489;28;20397;-80
2022/01/10 00:54:28;;;;;;;6.43;5.00;;;3.20;99.90;;;;;;5076140;28;20387;-80
2022/01/10 00:57:13;;;;;;;16.43;6.97;;;3.20;99.90;;;;;;5061249;28;20363;-80
2022/01/10 01:00:00;;;;;;;7.43;5.33;;;3.20;99.90;;;;;;5076125;28;20434;-81
2022/01/10 01:02:45;;;;;;;9.00;5.70;;;3.20;99.90;;;;;;5077105;28;20364;-80
2022/01/10 01:05:33;;;;;;;6.67;5.63;;;3.30;99.90;;;;;;5078305;28;20926;-79
2022/01/10 01:08:17;;;;;;;5.13;4.47;;;3.20;99.90;;;;;;5075601;28;20370;-80
2022/01/10 01:11:13;;;;;;;5.83;4.50;;;3.30;99.90;;;;;;5060359;28;20375;-80
2022/01/10 01:13:59;;;;;;;12.10;4.13;;;3.40;99.90;;;;;;5075434;28;20438;-80
2022/01/10 01:16:46;;;;;;;5.80;4.27;;;3.30;99.90;;;;;;5075940;28;20403;-80
2022/01/10 01:25:28;;;;;;;6.37;4.83;;;3.40;99.90;;;;;;5075478;28;20385;-80
2022/01/10 01:28:13;;;;;;;6.73;5.47;;;3.40;99.90;;;;;;5060300;28;20414;-80
2022/01/10 01:30:58;;;;;;;5.60;4.60;;;3.30;99.90;;;;;;5075348;28;20477;-80
2022/01/10 01:33:42;;;;;;;7.60;5.40;;;3.30;99.90;;;;;;5075698;28;20364;-80
2022/01/10 01:36:29;;;;;;;5.63;5.13;;;3.40;99.90;;;;;;5059484;28;20368;-80
2022/01/10 01:39:20;;;;;;;5.93;5.23;;;3.20;99.90;;;;;;5060339;28;20526;-80
2022/01/10 01:42:30;;;;;;;8.87;5.20;;;3.20;99.90;;;;;;5077806;28;20587;-80
2022/01/10 01:45:12;;;;;;;5.73;4.30;;;3.20;99.90;;;;;;5078716;28;20418;-80
2022/01/10 01:47:56;;;;;;;7.90;5.33;;;3.30;99.90;;;;;;5078615;28;20448;-80
2022/01/10 01:50:42;;;;;;;8.70;5.47;;;3.20;99.90;;;;;;5079313;28;20364;-80
2022/01/10 01:53:27;;;;;;;8.87;6.30;;;3.10;99.90;;;;;;5078495;28;20363;-80
2022/01/10 01:56:13;;;;;;;11.50;5.27;;;3.10;99.90;;;;;;5078861;28;20903;-80
2022/01/10 01:58:57;;;;;;;7.30;5.77;;;3.20;99.90;;;;;;5078966;28;20446;-80
2022/01/10 02:01:42;;;;;;;5.47;4.97;;;3.20;99.90;;;;;;5095373;28;20424;-80
2022/01/10 02:04:26;;;;;;;7.30;5.20;;;3.20;99.90;;;;;;5083300;28;20565;-80
2022/01/10 02:07:11;;;;;;;8.70;5.40;;;3.20;99.90;;;;;;5100619;28;20469;-80
2022/01/10 02:09:56;;;;;;;9.20;6.47;;;3.30;99.90;;;;;;5100815;28;20518;-80
2022/01/10 02:12:41;;;;;;;10.00;6.47;;;3.30;99.90;;;;;;5081535;28;20395;-80
2022/01/10 02:15:47;;;;;;;16.00;5.93;;;3.60;99.90;;;;;;5100930;28;20386;-80
2022/01/10 02:18:34;;;;;;;9.40;6.00;;;3.70;99.90;;;;;;5089388;28;20427;-80
2022/01/10 02:21:18;;;;;;;12.93;6.47;;;3.90;99.90;;;;;;5078731;28;20421;-80
2022/01/10 02:24:04;;;;;;;9.87;5.67;;;4.00;99.90;;;;;;5078715;28;20356;-80
2022/01/10 02:26:51;;;;;;;7.87;5.70;;;4.10;99.90;;;;;;5079150;28;20891;-80
2022/01/10 02:29:36;;;;;;;17.60;5.40;;;4.10;99.90;;;;;;5049163;28;20440;-79
2022/01/10 02:32:21;;;;;;;4.80;4.37;;;4.10;99.90;;;;;;5078090;28;20364;-80
2022/01/10 02:35:18;;;;;;;5.53;5.00;;;4.10;99.90;;;;;;5078855;28;20401;-79
2022/01/10 02:38:03;;;;;;;9.03;4.97;;;4.10;99.90;;;;;;5078898;28;20778;-80
2022/01/10 02:40:50;;;;;;;7.90;5.67;;;4.00;99.90;;;;;;5078125;28;20748;-80
2022/01/10 02:43:35;;;;;;;10.17;5.37;;;4.00;99.90;;;;;;5077909;28;20406;-80
2022/01/10 02:46:20;;;;;;;4.17;3.77;;;3.90;99.90;;;;;;5077917;28;20898;-80
2022/01/10 02:49:16;;;;;;;7.70;4.10;;;3.90;99.90;;;;;;5077587;28;20457;-80
2022/01/10 02:52:02;;;;;;;5.17;4.53;;;3.80;99.90;;;;;;5034805;28;20463;-80
2022/01/10 02:54:46;;;;;;;3.07;2.77;;;3.90;99.90;;;;;;5062346;28;20435;-80
2022/01/10 02:57:33;;;;;;;9.80;4.20;;;4.00;99.90;;;;;;5062539;28;20368;-81
2022/01/10 03:00:21;;;;;;;6.80;4.13;;;3.90;99.90;;;;;;5056302;28;20551;-80
2022/01/10 03:03:06;;;;;;;4.77;4.00;;;3.60;99.90;;;;;;5070326;28;20393;-80
2022/01/10 03:05:51;;;;;;;7.40;4.97;;;3.50;99.90;;;;;;5077663;28;20381;-80
2022/01/10 03:08:35;;;;;;;7.40;4.53;;;3.40;99.90;;;;;;5077512;28;20367;-80
2022/01/10 03:11:20;;;;;;;14.90;5.73;;;3.10;99.90;;;;;;5077715;28;20884;-80
2022/01/10 03:14:05;;;;;;;4.53;4.23;;;2.90;99.90;;;;;;5077438;28;20707;-80
2022/01/10 03:16:50;;;;;;;7.03;5.37;;;2.90;99.90;;;;;;5077099;28;20438;-80
2022/01/10 03:19:35;;;;;;;7.27;6.57;;;2.80;99.90;;;;;;5076885;28;20951;-80
2022/01/10 03:22:21;;;;;;;13.93;6.20;;;2.70;99.90;;;;;;5077033;28;20773;-80
2022/01/10 03:25:05;;;;;;;9.40;6.10;;;2.50;99.90;;;;;;5087703;28;20356;-80
2022/01/10 03:27:50;;;;;;;6.97;5.10;;;2.50;99.90;;;;;;5095705;28;20425;-80
2022/01/10 03:30:35;;;;;;;6.30;5.73;;;2.60;99.90;;;;;;5077314;28;20399;-81
2022/01/10 03:33:19;;;;;;;8.73;7.30;;;2.50;99.90;;;;;;5077161;28;20716;-80
2022/01/10 03:36:04;;;;;;;12.30;6.80;;;2.50;99.90;;;;;;5078067;28;20705;-80
2022/01/10 03:38:49;;;;;;;6.77;6.13;;;2.50;99.90;;;;;;5077068;28;20407;-81
2022/01/10 03:41:35;;;;;;;4.77;4.37;;;2.50;99.90;;;;;;5077230;28;20377;-81
2022/01/10 03:44:20;;;;;;;7.77;6.20;;;2.60;99.90;;;;;;5077496;28;20380;-81
2022/01/10 03:47:05;;;;;;;8.33;5.73;;;2.30;99.90;;;;;;5061269;28;20448;-80
2022/01/10 03:49:50;;;;;;;10.63;5.07;;;2.50;99.90;;;;;;5077026;28;20459;-79
2022/01/10 03:52:35;;;;;;;11.97;5.13;;;2.50;99.90;;;;;;5062346;28;20359;-81
2022/01/10 03:55:19;;;;;;;5.50;4.93;;;2.50;99.90;;;;;;5076693;28;20473;-80
2022/01/10 03:58:03;;;;;;;7.07;6.17;;;2.50;99.90;;;;;;5061660;28;20447;-81
2022/01/10 04:00:48;;;;;;;10.33;6.73;;;2.50;99.90;;;;;;5076859;28;20467;-81
2022/01/10 04:03:32;;;;;;;6.27;5.53;;;2.50;99.90;;;;;;5076177;28;20386;-81
2022/01/10 04:06:17;;;;;;;15.50;5.00;;;2.60;99.90;;;;;;5077386;28;20355;-81
2022/01/10 04:09:03;;;;;;;13.43;6.20;;;2.50;99.90;;;;;;5083668;28;20394;-79
2022/01/10 04:11:49;;;;;;;7.50;5.53;;;2.50;99.90;;;;;;5098023;28;20413;-80
2022/01/10 04:14:33;;;;;;;12.70;5.30;;;2.60;99.90;;;;;;5104040;28;20420;-78
2022/01/10 04:17:18;;;;;;;5.90;4.93;;;2.50;99.90;;;;;;5085699;28;20449;-80
2022/01/10 04:20:04;;;;;;;6.27;5.77;;;2.60;99.90;;;;;;5096948;28;20434;-80
2022/01/10 04:22:49;;;;;;;10.23;5.80;;;2.80;99.90;;;;;;5095974;28;20418;-79
2022/01/10 04:25:34;;;;;;;4.97;4.57;;;2.90;99.90;;;;;;5096498;28;20358;-80
2022/01/10 04:28:19;;;;;;;9.53;6.00;;;2.90;99.90;;;;;;5096399;28;20370;-80
2022/01/10 04:31:05;;;;;;;6.53;5.10;;;3.00;99.90;;;;;;5096621;28;20423;-81
2022/01/10 04:33:49;;;;;;;7.00;5.30;;;3.00;99.90;;;;;;5096685;28;20470;-80
2022/01/10 04:36:34;;;;;;;6.27;4.23;;;3.00;99.90;;;;;;5081543;28;20699;-80
2022/01/10 04:39:18;;;;;;;6.77;5.23;;;2.90;99.90;;;;;;5096440;28;20418;-80
2022/01/10 04:42:03;;;;;;;5.47;4.00;;;3.00;99.90;;;;;;5096941;28;20939;-79
2022/01/10 04:44:49;;;;;;;6.40;5.70;;;3.00;99.90;;;;;;5097059;28;20355;-81
2022/01/10 04:47:33;;;;;;;7.57;4.93;;;3.10;99.90;;;;;;5080045;28;20429;-80
2022/01/10 04:50:46;;;;;;;6.33;3.97;;;3.20;99.90;;;;;;5101553;28;20403;-80
2022/01/10 04:53:22;;;;;;;5.43;3.60;;;3.40;99.90;;;;;;5096095;28;20964;-80
2022/01/10 04:56:07;;;;;;;6.83;5.77;;;3.60;99.90;;;;;;5096485;28;20882;-80
2022/01/10 04:58:52;;;;;;;6.10;4.73;;;3.60;99.90;;;;;;5101906;28;20449;-81
2022/01/10 05:01:37;;;;;;;9.80;6.03;;;3.60;99.90;;;;;;5114761;28;20375;-80
2022/01/10 05:04:21;;;;;;;6.37;5.23;;;3.60;99.90;;;;;;5097786;28;20712;-80
2022/01/10 05:07:06;;;;;;;7.00;6.33;;;3.80;99.90;;;;;;5097095;28;20388;-80
2022/01/10 05:09:51;;;;;;;9.27;6.00;;;3.80;99.90;;;;;;5097971;28;20422;-80
2022/01/10 05:12:35;;;;;;;8.57;5.60;;;4.00;99.90;;;;;;5096147;28;20396;-80
2022/01/10 05:15:20;;;;;;;5.47;4.97;;;4.00;99.90;;;;;;5097349;28;20387;-80
2022/01/10 05:18:04;;;;;;;11.13;6.07;;;4.10;99.90;;;;;;5100147;28;20376;-80
2022/01/10 05:20:50;;;;;;;7.40;5.60;;;4.10;99.90;;;;;;5099429;28;20402;-80
2022/01/10 05:23:34;;;;;;;10.87;5.93;;;4.10;99.90;;;;;;5100146;28;20411;-80
2022/01/10 05:26:18;;;;;;;5.40;4.97;;;4.00;99.90;;;;;;5099330;28;20389;-80
2022/01/10 05:29:03;;;;;;;7.33;4.80;;;4.10;99.90;;;;;;5099722;28;20398;-80
2022/01/10 05:31:48;;;;;;;6.43;4.83;;;4.10;99.90;;;;;;5100152;28;20381;-80
2022/01/10 05:34:33;;;;;;;14.37;5.87;;;4.10;99.90;;;;;;5100026;28;20859;-80
2022/01/10 05:37:18;;;;;;;5.50;4.90;;;4.20;99.90;;;;;;5099718;28;20366;-80
2022/01/10 05:40:03;;;;;;;8.10;7.40;;;4.10;99.90;;;;;;5084336;28;20414;-80
2022/01/10 05:42:48;;;;;;;6.00;4.80;;;4.10;99.90;;;;;;5100737;28;20358;-80
2022/01/10 05:45:33;;;;;;;6.43;5.90;;;4.00;99.90;;;;;;5100122;28;20465;-80
2022/01/10 05:48:24;;;;;;;12.70;5.90;;;4.00;99.90;;;;;;5084335;28;20442;-79
2022/01/10 05:51:10;;;;;;;5.33;4.83;;;4.10;99.90;;;;;;5084411;28;20408;-80
2022/01/10 05:53:55;;;;;;;6.43;4.70;;;4.20;99.90;;;;;;5084323;28;20362;-79
2022/01/10 05:56:40;;;;;;;8.53;5.27;;;4.10;99.90;;;;;;5100535;28;20436;-80
2022/01/10 05:59:25;;;;;;;11.77;4.40;;;4.10;99.90;;;;;;5099340;28;20462;-79
2022/01/10 06:02:09;;;;;;;7.97;4.67;;;4.20;99.90;;;;;;5098861;28;20363;-81
2022/01/10 06:04:54;;;;;;;8.90;5.30;;;4.20;99.90;;;;;;5099808;28;20375;-80
2022/01/10 06:07:39;;;;;;;3.80;3.50;;;4.20;99.90;;;;;;5099782;28;20490;-79
2022/01/10 06:10:24;;;;;;;5.47;4.50;;;4.20;99.90;;;;;;5084053;28;20389;-79
2022/01/10 06:13:08;;;;;;;9.10;5.60;;;4.20;99.90;;;;;;5099603;28;20867;-79
2022/01/10 06:15:53;;;;;;;7.30;4.90;;;4.20;99.90;;;;;;5099272;28;20538;-80
2022/01/10 06:18:37;;;;;;;12.23;6.10;;;4.20;99.90;;;;;;5083911;28;20559;-79
2022/01/10 06:21:21;;;;;;;8.53;5.50;;;4.20;99.90;;;;;;5099776;28;20938;-79
2022/01/10 06:24:06;;;;;;;7.07;5.70;;;4.20;99.90;;;;;;5098742;28;20428;-80
2022/01/10 06:26:50;;;;;;;7.90;5.60;;;4.20;99.90;;;;;;5098870;28;20890;-80
2022/01/10 06:29:35;;;;;;;15.90;7.13;;;4.20;99.90;;;;;;5099009;28;20446;-79
2022/01/10 06:32:20;;;;;;;10.93;7.17;;;4.20;99.90;;;;;;5096841;28;20477;-79
2022/01/10 06:35:05;;;;;;;14.90;7.40;;;4.20;99.90;;;;;;5098274;28;20386;-79
2022/01/10 06:37:50;;;;;;;10.33;7.37;;;4.20;99.90;;;;;;5082446;28;20428;-79
2022/01/10 06:40:34;;;;;;;9.27;6.20;;;4.20;99.90;;;;;;5063916;28;20547;-80
2022/01/10 06:43:19;;;;;;;7.07;5.63;;;4.20;99.90;;;;;;5094024;28;20517;-81
2022/01/10 06:46:04;;;;;;;11.70;6.20;;;4.20;99.90;;;;;;5097155;28;20379;-81
2022/01/10 06:48:48;;;;;;;10.20;6.30;;;4.10;99.90;;;;;;5096450;28;20406;-79
2022/01/10 06:51:33;;;;;;;14.57;5.43;;;4.10;99.90;;;;;;5098459;28;20908;-80
2022/01/10 06:54:18;;;;;;;10.13;6.10;;;4.00;99.90;;;;;;5087658;28;20910;-80
2022/01/10 06:57:03;;;;;;;7.50;5.70;;;4.10;99.90;;;;;;5097057;28;20391;-81
2022/01/10 06:59:47;;;;;;;26.07;6.43;;;4.00;99.90;;;;;;5095931;28;20452;-80
2022/01/10 07:02:32;;;;;;;9.60;6.40;;;4.00;99.90;;;;;;5103795;28;20403;-80
2022/01/10 07:05:16;;;;;;;10.87;7.20;;;4.00;99.90;;;;;;5095980;28;20477;-78
2022/01/10 07:08:03;;;;;;;5.77;5.13;;;4.00;99.90;;;;;;5088995;28;20416;-80
2022/01/10 07:10:48;;;;;;;6.90;5.20;;;4.00;99.90;;;;;;5077388;28;20484;-80
2022/01/10 07:13:33;;;;;;;6.07;5.43;;;4.00;99.90;;;;;;5092228;28;20443;-80
2022/01/10 07:16:17;;;;;;;7.20;6.10;;;4.00;99.90;;;;;;5066345;28;20402;-80
2022/01/10 07:19:02;;;;;;;8.70;5.80;;;4.10;99.90;;;;;;5091934;28;20445;-80
2022/01/10 07:21:48;;;;;;;7.43;4.30;;;4.10;99.90;;;;;;5081648;28;21003;-80
2022/01/10 07:24:33;;;;;;;6.30;4.30;;;4.10;99.90;;;;;;5081721;28;20728;-80
2022/01/10 07:27:17;;;;;;;13.13;5.10;;;4.10;99.90;;;;;;5095165;28;20509;-78
2022/01/10 07:30:04;;;;;;;7.13;5.53;;;4.10;99.90;;;;;;5091418;28;20415;-80
2022/01/10 07:32:53;;;;;;;7.40;5.17;;;4.10;99.90;;;;;;5094118;28;20433;-80
2022/01/10 07:35:37;;;;;;;12.47;5.83;;;4.10;99.90;;;;;;5071603;28;20445;-79
2022/01/10 07:38:23;;;;;;;10.90;5.70;;;4.00;99.90;;;;;;5089523;28;20545;-79
2022/01/10 07:41:08;;;;;;;8.80;5.83;;;4.10;99.90;;;;;;5095235;28;20876;-80
2022/01/10 07:43:52;;;;;;;7.83;6.20;;;4.10;99.90;;;;;;5088328;28;20390;-81
2022/01/10 07:46:37;;;;;;;8.37;5.77;;;4.10;99.90;;;;;;5069040;28;20454;-80
2022/01/10 07:49:22;;;;;;;6.47;5.20;;;4.20;99.90;;;;;;5072243;28;20847;-80
2022/01/10 07:52:06;;;;;;;9.30;5.23;;;4.20;99.90;;;;;;5088257;28;20443;-80
2022/01/10 07:54:51;;;;;;;6.00;5.40;;;4.20;99.90;;;;;;5091330;28;20397;-80
2022/01/10 07:57:35;;;;;;;6.10;5.50;;;4.20;99.90;;;;;;5085559;28;20428;-80
2022/01/10 08:00:20;;;;;;;6.37;5.37;;;4.20;99.90;;;;;;5094189;28;20491;-80
2022/01/10 08:03:05;;;;;;;7.60;5.87;;;4.20;99.90;;;;;;5089536;28;20421;-81
2022/01/10 08:05:49;;;;;;;8.00;5.33;;;4.20;99.90;;;;;;5094629;28;20482;-81
2022/01/10 08:08:35;;;;;;;5.70;5.07;;;4.20;99.90;;;;;;5095109;28;20402;-81
2022/01/10 08:11:20;;;;;;;9.03;6.50;;;4.20;99.90;;;;;;5103839;28;20978;-80
2022/01/10 08:14:05;;;;;;;12.87;6.23;;;4.20;99.90;;;;;;5069862;28;20444;-80
2022/01/10 08:16:50;;;;;;;9.57;5.23;;;4.20;99.90;;;;;;5106001;28;20974;-81
2022/01/10 08:19:34;;;;;;;8.40;6.40;;;4.30;99.90;;;;;;5107155;28;20422;-80
2022/01/10 08:22:19;;;;;;;9.13;6.80;;;4.30;99.90;;;;;;5104963;28;20451;-80
2022/01/10 08:25:04;;;;;;;27.47;10.13;;;4.20;99.90;;;;;;5104609;28;20467;-80
2022/01/10 08:27:49;;;;;;;12.60;8.23;;;4.30;99.90;;;;;;5087281;28;20449;-81
2022/01/10 08:30:34;;;;;;;11.90;7.10;;;4.40;99.90;;;;;;5101264;28;20394;-80
2022/01/10 08:33:19;;;;;;;13.73;7.70;;;4.40;99.90;;;;;;5096430;28;20846;-79
2022/01/10 08:36:04;;;;;;;10.03;7.63;;;4.40;99.90;;;;;;5100241;28;20392;-80
2022/01/10 08:38:49;;;;;;;8.30;7.10;;;4.40;99.90;;;;;;5104491;28;20450;-80
2022/01/10 08:41:36;;;;;;;16.90;7.23;;;4.40;99.90;;;;;;5088376;28;20407;-80
2022/01/10 08:44:20;;;;;;;10.17;6.37;;;4.40;99.90;;;;;;5096696;28;20889;-81
2022/01/10 08:47:05;;;;;;;8.87;6.17;;;4.40;99.90;;;;;;5068564;28;20592;-80
2022/01/10 08:49:49;;;;;;;9.40;6.77;;;4.40;99.90;;;;;;5065373;28;20449;-80
2022/01/10 08:52:34;;;;;;;7.23;6.60;;;4.50;99.90;;;;;;5064646;28;20445;-80
2022/01/10 08:55:19;;;;;;;12.30;6.90;;;4.50;99.90;;;;;;5059712;28;20415;-80
2022/01/10 08:58:04;;;;;;;7.37;5.53;;;4.50;99.90;;;;;;5047845;28;20415;-81
2022/01/10 09:00:49;;;;;;;6.80;6.20;;;4.60;99.90;;;;;;5058731;28;20412;-80
2022/01/10 09:03:35;;;;;;;7.30;6.10;;;4.50;99.90;;;;;;5050014;28;20411;-80
2022/01/10 09:06:20;;;;;;;13.10;6.50;;;4.40;99.90;;;;;;5051343;28;20406;-80
2022/01/10 09:09:06;;;;;;;9.70;6.80;;;4.50;99.90;;;;;;5060674;28;20401;-79
2022/01/10 09:11:51;;;;;;;9.70;7.47;;;4.60;99.90;;;;;;5058525;28;20444;-80
2022/01/10 09:14:36;;;;;;;26.07;7.40;;;4.60;99.90;;;;;;5064800;28;20441;-81
2022/01/10 09:17:20;;;;;;;11.80;6.53;;;4.60;99.90;;;;;;5065939;28;20436;-81
2022/01/10 09:20:05;;;;;;;7.87;7.03;;;4.70;99.90;;;;;;5053113;28;20465;-80
2022/01/10 09:22:50;;;;;;;9.70;8.33;;;4.70;99.90;;;;;;5071138;28;20505;-80
2022/01/10 09:25:35;;;;;;;8.40;7.33;;;4.80;99.90;;;;;;5065978;28;20443;-80
2022/01/10 09:28:21;;;;;;;9.60;8.63;;;4.80;99.90;;;;;;5060358;28;20437;-81
2022/01/10 09:31:05;;;;;;;6.40;5.77;;;4.80;99.90;;;;;;5064187;28;20452;-81
2022/01/10 09:33:54;;;;;;;9.90;7.40;;;4.90;99.90;;;;;;5064575;28;20416;-81
2022/01/10 09:36:39;;;;;;;9.50;8.40;;;4.90;99.90;;;;;;5063624;28;20383;-79
2022/01/10 09:39:23;;;;;;;12.23;6.97;;;4.90;99.90;;;;;;5040821;28;20483;-81
2022/01/10 09:42:10;;;;;;;10.90;7.37;;;4.90;99.90;;;;;;5055815;28;20425;-81
2022/01/10 09:44:54;;;;;;;14.50;7.67;;;5.00;99.90;;;;;;5054057;28;20429;-81
2022/01/10 09:47:38;;;;;;;14.30;11.43;;;5.10;99.90;;;;;;5057138;28;20484;-81
2022/01/10 09:50:23;;;;;;;14.83;9.63;;;5.10;99.90;;;;;;5075717;28;20416;-81
2022/01/10 09:53:11;;;;;;;9.57;6.87;;;5.10;99.90;;;;;;5068708;28;20488;-80
2022/01/10 09:55:56;;;;;;;18.00;7.67;;;5.10;99.90;;;;;;5085993;28;20399;-80
2022/01/10 09:58:41;;;;;;;11.10;7.43;;;5.10;99.90;;;;;;5078510;28;20557;-82
2022/01/10 10:01:30;;;;;;;8.80;8.00;;;5.20;99.90;;;;;;5072951;28;20909;-81
2022/01/10 10:04:14;;;;;;;6.33;5.70;;;5.10;99.90;;;;;;5064830;28;20412;-81
2022/01/10 10:06:59;;;;;;;16.77;6.50;;;5.20;99.90;;;;;;5084204;28;20430;-81
2022/01/10 10:09:45;;;;;;;6.57;5.50;;;5.30;99.90;;;;;;5084969;28;20467;-81
2022/01/10 10:12:29;;;;;;;11.27;5.30;;;5.20;99.90;;;;;;5065369;28;20529;-81
2022/01/10 10:15:17;;;;;;;14.40;8.90;;;5.40;99.90;;;;;;5074229;28;20469;-80
2022/01/10 10:18:03;;;;;;;12.90;7.97;;;5.40;99.90;;;;;;5081021;28;20406;-81
2022/01/10 10:20:47;;;;;;;11.50;6.43;;;5.60;99.90;;;;;;5072011;28;20464;-80
2022/01/10 10:23:32;;;;;;;8.37;7.33;;;5.80;99.90;;;;;;5069136;28;20433;-81
2022/01/10 10:26:19;;;;;;;9.83;5.73;;;6.00;99.90;;;;;;5085991;28;20427;-80
2022/01/10 10:29:05;;;;;;;17.20;5.87;;;6.10;99.90;;;;;;5082772;28;20428;-81
2022/01/10 10:31:54;;;;;;;10.60;5.93;;;6.30;99.90;;;;;;5087604;28;20417;-80
2022/01/10 10:34:39;;;;;;;19.17;6.80;;;6.40;99.90;;;;;;5088272;28;20417;-80
2022/01/10 10:37:27;;;;;;;13.33;7.10;;;6.40;99.90;;;;;;5096155;28;20443;-80
2022/01/10 10:40:15;;;;;;;8.50;6.43;;;6.50;99.90;;;;;;5063571;28;20477;-81
2022/01/10 10:42:59;;;;;;;12.83;7.43;;;6.50;99.90;;;;;;5097774;28;20438;-81
2022/01/10 10:45:47;;;;;;;13.27;7.40;;;6.60;99.90;;;;;;5085640;28;20415;-79
2022/01/10 10:48:35;;;;;;;12.87;7.93;;;6.80;99.90;;;;;;5076911;28;20463;-80
2022/01/10 10:51:19;;;;;;;13.63;7.70;;;6.80;99.90;;;;;;5084138;28;20436;-80
2022/01/10 10:54:06;;;;;;;9.47;6.97;;;7.00;99.90;;;;;;5084913;28;20430;-81
2022/01/10 10:56:50;;;;;;;14.17;6.83;;;6.70;99.90;;;;;;5084450;28;20437;-81
2022/01/10 10:59:39;;;;;;;8.47;7.47;;;6.60;99.90;;;;;;5065306;28;20630;-81
2022/01/10 11:02:24;;;;;;;8.97;7.13;;;6.80;99.90;;;;;;5073354;28;20483;-81
2022/01/10 11:05:09;;;;;;;10.70;7.70;;;6.80;99.90;;;;;;5065265;28;20432;-81
2022/01/10 11:07:54;;;;;;;13.27;7.63;;;6.80;99.90;;;;;;5084276;28;20429;-79
2022/01/10 11:10:39;;;;;;;10.70;7.50;;;6.50;99.90;;;;;;5082958;28;20814;-80
2022/01/10 11:13:24;;;;;;;9.97;8.70;;;6.40;99.90;;;;;;5082683;28;20483;-80
2022/01/10 11:16:09;;;;;;;19.03;8.77;;;6.60;99.90;;;;;;5069322;28;20428;-81
2022/01/10 11:18:55;;;;;;;16.37;7.63;;;7.40;99.90;;;;;;5084127;28;20426;-81
2022/01/10 11:21:41;;;;;;;14.43;8.00;;;7.30;99.90;;;;;;5069419;28;20494;-81
2022/01/10 11:24:46;;;;;;;13.50;8.10;;;7.10;99.90;;;;;;5075880;28;20522;-80
2022/01/10 11:27:37;;;;;;;10.37;7.37;;;6.50;99.90;;;;;;5082874;28;20432;-81
2022/01/10 11:30:28;;;;;;;10.10;7.90;;;6.40;99.90;;;;;;5082020;28;20516;-80
2022/01/10 11:33:18;;;;;;;13.33;8.10;;;6.80;99.90;;;;;;5060358;28;20451;-81
2022/01/10 11:36:08;;;;;;;10.23;6.57;;;6.30;99.90;;;;;;5076069;28;20416;-80
2022/01/10 11:38:55;;;;;;;9.77;6.77;;;5.60;99.90;;;;;;5081755;28;20446;-81
2022/01/10 11:41:40;;;;;;;10.73;7.53;;;5.50;99.90;;;;;;5077832;28;20399;-80
2022/01/10 11:44:26;;;;;;;13.23;7.60;;;5.80;99.90;;;;;;5080261;28;20426;-81
2022/01/10 11:47:10;;;;;;;10.83;7.80;;;6.40;99.90;;;;;;5083428;28;20457;-79
2022/01/10 11:50:17;;;;;;;15.40;8.20;;;6.60;99.90;;;;;;5079149;28;20402;-80
2022/01/10 11:53:04;;;;;;;15.67;8.70;;;6.80;99.90;;;;;;5081229;28;20493;-81
2022/01/10 11:55:55;;;;;;;11.33;7.30;;;6.70;99.90;;;;;;5068163;28;20439;-81
2022/01/10 11:58:39;;;;;;;9.73;6.17;;;7.00;99.90;;;;;;5077994;28;20481;-80
2022/01/10 12:01:33;;;;;;;13.20;9.07;;;7.00;99.90;;;;;;5087580;28;20395;-80
2022/01/10 12:04:22;;;;;;;8.60;7.40;;;7.10;99.90;;;;;;5082208;28;20417;-80
2022/01/10 12:07:09;;;;;;;12.30;7.00;;;6.90;99.90;;;;;;5087749;28;20433;-80
2022/01/10 12:09:54;;;;;;;7.47;6.73;;;6.70;99.90;;;;;;5070241;28;20399;-79
2022/01/10 12:12:42;;;;;;;11.30;6.73;;;6.10;99.90;;;;;;5073452;28;20790;-82
2022/01/10 12:15:31;;;;;;;11.47;7.43;;;5.80;99.90;;;;;;5077843;28;20440;-83
2022/01/10 12:18:16;;;;;;;12.83;7.60;;;5.90;99.90;;;;;;5076220;28;20419;-82
2022/01/10 12:21:01;;;;;;;10.30;6.80;;;5.90;99.90;;;;;;5076927;28;20769;-82
2022/01/10 12:23:47;;;;;;;9.33;6.80;;;6.20;99.90;;;;;;5062244;28;20424;-83
2022/01/10 12:26:32;;;;;;;8.10;5.90;;;6.50;99.90;;;;;;5073145;28;20437;-81
2022/01/10 12:29:22;;;;;;;12.77;7.33;;;6.60;99.90;;;;;;5075133;28;20414;-82
2022/01/10 12:32:08;;;;;;;9.03;7.00;;;6.70;99.90;;;;;;5059748;28;20432;-80
2022/01/10 12:34:53;;;;;;;7.53;6.40;;;6.70;99.90;;;;;;5079729;28;20462;-79
2022/01/10 12:37:38;;;;;;;8.27;6.83;;;6.80;99.90;;;;;;5075985;28;20504;-80
2022/01/10 12:40:23;;;;;;;11.87;8.80;;;6.80;99.90;;;;;;5078036;28;20499;-80
2022/01/10 12:43:08;;;;;;;6.67;6.03;;;6.60;99.90;;;;;;5081219;28;20414;-80
2022/01/10 12:45:53;;;;;;;8.57;6.23;;;6.20;99.90;;;;;;5080975;28;20448;-80
2022/01/10 12:48:39;;;;;;;16.07;8.43;;;6.00;99.90;;;;;;5062034;28;20423;-80
2022/01/10 12:51:25;;;;;;;8.30;6.87;;;5.90;99.90;;;;;;5072493;28;20384;-80
2022/01/10 12:54:13;;;;;;;9.70;6.97;;;6.20;99.90;;;;;;5082891;28;20432;-80
2022/01/10 12:57:00;;;;;;;16.60;7.53;;;6.50;99.90;;;;;;5059079;28;20417;-79
2022/01/10 12:59:45;;;;;;;12.80;8.10;;;6.60;99.90;;;;;;5065041;28;20510;-80
2022/01/10 13:02:32;;;;;;;8.50;6.60;;;6.70;99.90;;;;;;5067645;28;20455;-80
2022/01/10 13:05:18;;;;;;;10.50;7.20;;;6.80;99.90;;;;;;5063191;28;20480;-79
2022/01/10 13:08:04;;;;;;;13.13;9.60;;;6.90;99.90;;;;;;5084320;28;20487;-80
2022/01/10 13:10:52;;;;;;;14.83;7.70;;;6.90;99.90;;;;;;5079831;28;20432;-80
2022/01/10 13:13:39;;;;;;;12.10;7.77;;;6.60;99.90;;;;;;5090306;28;20387;-80
2022/01/10 13:16:29;;;;;;;11.90;7.63;;;6.80;99.90;;;;;;5085582;28;20443;-80
2022/01/10 13:19:16;;;;;;;13.20;7.17;;;6.80;99.90;;;;;;5095040;28;20438;-80
2022/01/10 13:22:06;;;;;;;12.27;8.23;;;6.80;99.90;;;;;;5066086;28;20547;-80
2022/01/10 13:24:53;;;;;;;14.20;9.50;;;6.80;99.90;;;;;;5068330;28;20416;-81
2022/01/10 13:27:37;;;;;;;10.73;7.90;;;6.60;99.90;;;;;;5080721;28;20580;-81
2022/01/10 13:30:26;;;;;;;11.57;7.70;;;6.70;99.90;;;;;;5072646;28;20431;-81
2022/01/10 13:33:10;;;;;;;11.47;7.17;;;6.70;99.90;;;;;;5082549;28;20513;-79
2022/01/10 13:35:57;;;;;;;16.13;8.07;;;6.80;99.90;;;;;;5065017;28;20448;-80
2022/01/10 13:38:42;;;;;;;14.67;8.40;;;6.80;99.90;;;;;;5085747;28;20406;-80
2022/01/10 13:41:26;;;;;;;11.23;6.97;;;6.80;99.90;;;;;;5092326;28;20422;-80
2022/01/10 13:44:11;;;;;;;10.40;7.87;;;6.80;99.90;;;;;;5084106;28;20399;-80
2022/01/10 13:47:05;;;;;;;10.80;7.30;;;6.90;99.90;;;;;;5087733;28;20479;-79
2022/01/10 13:49:50;;;;;;;8.27;6.30;;;6.90;99.90;;;;;;5091706;28;20420;-79
2022/01/10 13:52:34;;;;;;;8.87;6.60;;;6.90;99.90;;;;;;5083711;28;20841;-79
2022/01/10 13:55:19;;;;;;;14.63;7.97;;;6.90;99.90;;;;;;5085625;28;20455;-80
2022/01/10 13:58:07;;;;;;;15.17;6.83;;;6.90;99.90;;;;;;5090354;28;20427;-79
2022/01/10 14:00:54;;;;;;;10.73;7.07;;;6.90;99.90;;;;;;5095053;28;20475;-78
2022/01/10 14:03:40;;;;;;;8.43;5.97;;;6.80;99.90;;;;;;5083976;28;20420;-80
2022/01/10 14:06:30;;;;;;;12.27;7.47;;;6.80;99.90;;;;;;5076898;28;20452;-80
2022/01/10 14:09:15;;;;;;;8.57;6.37;;;6.80;99.90;;;;;;5095918;28;20436;-79
2022/01/10 14:12:02;;;;;;;8.83;5.93;;;6.80;99.90;;;;;;5072433;28;20439;-78
2022/01/10 14:14:53;;;;;;;8.03;6.40;;;6.80;99.90;;;;;;5088754;28;20415;-80
2022/01/10 14:17:38;;;;;;;11.60;6.73;;;6.80;99.90;;;;;;5096987;28;20506;-80
2022/01/10 14:20:23;;;;;;;10.97;7.07;;;6.80;99.90;;;;;;5078464;28;20421;-80
2022/01/10 14:23:07;;;;;;;13.17;7.20;;;6.70;99.90;;;;;;5081802;28;20419;-80
2022/01/10 14:25:53;;;;;;;15.27;8.57;;;6.70;99.90;;;;;;5081550;28;20436;-80
2022/01/10 14:28:39;;;;;;;13.00;7.70;;;6.60;99.90;;;;;;5066632;28;20875;-80
2022/01/10 14:31:24;;;;;;;14.43;7.30;;;6.60;99.90;;;;;;5098482;28;20887;-80
2022/01/10 14:34:09;;;;;;;11.80;7.30;;;6.60;99.90;;;;;;5070092;28;20397;-80
2022/01/10 14:36:54;;;;;;;10.17;6.27;;;6.60;99.90;;;;;;5070890;28;20400;-80